Time;durP1;ratioP1;P1;durP2;ratioP2;P2;SDS_P1;SDS_P2;PMS_P1;PMS_P2;Temp;Humidity;BMP_temperature;BMP_pressure;BME280_temperature;BME280_humidity;BME280_pressure;Samples;Min_cycle;Max_cycle;Signal;HPM_P1;HPM_P2
2023/03/29 00:01:06;;;;;;;;;10.00;9.33;;;;;12.15;59.04;101602.47;1977764;28;3481483;-76
2023/03/29 00:02:18;;;;;;;;;17.67;17.00;;;;;12.15;59.01;101602.47;1977509;28;3557520;-76
2023/03/29 00:03:29;;;;;;;;;20.33;18.67;;;;;12.14;58.73;101605.16;1984682;28;3585637;-76
2023/03/29 00:04:41;;;;;;;;;20.67;17.67;;;;;12.14;58.78;101603.38;2000102;28;3579422;-76
2023/03/29 00:06:04;;;;;;;;;19.00;16.80;;;;;12.15;59.11;101605.09;1995300;28;3561656;-75
2023/03/29 00:07:15;;;;;;;;;23.00;16.33;;;;;12.15;58.69;101606.88;1977702;28;3575253;-76
2023/03/29 00:08:30;;;;;;;;;19.33;16.33;;;;;12.15;58.84;101610.38;1991884;28;3564867;-76
2023/03/29 00:09:41;;;;;;;;;20.50;17.50;;;;;12.14;58.82;101602.50;1986178;28;2835721;-76
2023/03/29 00:10:52;;;;;;;;;17.50;17.50;;;;;12.13;58.89;101599.00;1980878;28;2839838;-76
2023/03/29 00:12:04;;;;;;;;;19.67;19.67;;;;;12.14;59.08;101594.59;1954467;28;3570059;-76
2023/03/29 00:13:15;;;;;;;;;15.50;15.50;;;;;12.15;58.93;101596.31;1985770;28;2825743;-76
2023/03/29 00:14:29;;;;;;;;;19.33;17.67;;;;;12.15;58.59;101596.31;2001256;28;3575606;-76
2023/03/29 00:15:41;;;;;;;;;17.67;17.67;;;;;12.15;58.98;101596.31;1976628;28;3557533;-76
2023/03/29 00:16:51;;;;;;;;;22.00;19.50;;;;;12.16;59.27;101598.06;1987570;28;2834729;-76
2023/03/29 00:18:03;;;;;;;;;19.67;18.00;;;;;12.17;59.01;101596.31;1997376;28;3571086;-76
2023/03/29 00:19:16;;;;;;;;;27.00;18.00;;;;;12.15;58.90;101594.56;1993325;28;3599198;-76
2023/03/29 00:20:27;;;;;;;;;18.67;17.33;;;;;12.17;58.98;101593.66;1953806;28;3571203;-76
2023/03/29 00:21:38;;;;;;;;;18.00;17.00;;;;;12.17;59.24;101593.66;1985371;28;2826336;-76
2023/03/29 00:22:50;;;;;;;;;21.60;18.20;;;;;12.17;58.65;101593.66;1973200;28;3571023;-75
2023/03/29 00:24:02;;;;;;;;;19.67;18.67;;;;;12.17;59.04;101594.53;1995843;28;3561698;-76
2023/03/29 00:25:14;;;;;;;;;17.33;17.33;;;;;12.17;59.02;101588.41;1994656;28;3558641;-76
2023/03/29 00:26:25;;;;;;;;;18.50;13.50;;;;;12.18;58.92;101598.00;1984381;28;2810699;-76
2023/03/29 00:27:37;;;;;;;;;19.67;16.67;;;;;12.17;59.02;101593.66;1955400;28;2825247;-76
2023/03/29 00:28:48;;;;;;;;;21.33;17.00;;;;;12.17;58.35;101599.81;1974891;28;3557584;-76
2023/03/29 00:30:04;;;;;;;;;22.67;17.67;;;;;12.17;59.09;101591.03;1987978;28;3565885;-76
2023/03/29 00:31:17;;;;;;;;;19.00;17.00;;;;;12.17;58.85;101594.53;1982608;28;3562722;-76
2023/03/29 00:32:27;;;;;;;;;16.00;12.00;;;;;12.15;59.28;101591.91;1977339;28;2807566;-76
2023/03/29 00:33:39;;;;;;;;;14.50;14.50;;;;;12.15;59.03;101586.66;1963336;28;2808561;-76
2023/03/29 00:34:50;;;;;;;;;13.00;12.00;;;;;12.17;59.00;101591.03;1951556;28;2806496;-76
2023/03/29 00:36:03;;;;;;;;;18.00;15.33;;;;;12.17;59.28;101589.28;1971057;28;3547085;-76
2023/03/29 00:37:13;;;;;;;;;14.50;13.50;;;;;12.17;59.30;101588.41;1975329;28;2801333;-76
2023/03/29 00:38:25;;;;;;;;;20.80;17.40;;;;;12.16;59.48;101592.78;1974563;28;3569989;-75
2023/03/29 00:39:40;;;;;;;;;18.67;16.00;;;;;12.17;59.48;101599.81;1992818;28;2822138;-76
2023/03/29 00:40:51;;;;;;;;;15.00;12.00;;;;;12.17;59.70;101593.66;1977250;28;2806540;-76
2023/03/29 00:42:03;;;;;;;;;17.67;17.00;;;;;12.17;59.64;101591.03;1971162;28;3566888;-76
2023/03/29 00:43:15;;;;;;;;;18.67;14.00;;;;;12.16;59.16;101590.16;1998495;28;2813950;-76
2023/03/29 00:44:52;;;;;;;;;16.00;15.33;;;;;12.17;59.25;101593.66;1983092;28;2807614;-76
2023/03/29 00:46:03;;;;;;;;;17.33;14.67;;;;;12.17;59.36;101591.03;1977182;28;2819079;-75
2023/03/29 00:47:20;;;;;;;;;16.67;13.83;;;;;12.16;59.26;101584.88;2014710;28;1835735;-76
2023/03/29 00:48:31;;;;;;;;;13.00;11.00;;;;;12.17;59.47;101588.41;1960524;28;2791919;-75
2023/03/29 00:49:44;;;;;;;;;18.33;18.33;;;;;12.17;59.69;101594.53;1975648;28;2839936;-75
2023/03/29 00:51:07;;;;;;;;;19.20;18.20;;;;;12.17;59.76;101593.66;1993998;28;2832522;-75
2023/03/29 00:52:21;;;;;;;;;16.67;16.17;;;;;12.17;59.47;101591.03;1981418;28;1829494;-76
2023/03/29 00:53:39;;;;;;;;;19.00;14.00;;;;;12.18;59.68;101595.38;1949491;28;2814209;-76
2023/03/29 00:54:53;;;;;;;;;15.00;13.50;;;;;12.18;59.62;101592.75;1955363;28;2806512;-76
2023/03/29 00:56:17;;;;;;;;;18.50;16.67;;;;;12.17;59.53;101591.03;1984445;28;1828415;-76
2023/03/29 00:57:29;;;;;;;;;18.50;15.00;;;;;12.17;59.27;101591.03;1954269;28;2822136;-76
2023/03/29 00:58:56;;;;;;;;;15.33;15.33;;;;;12.17;59.31;101593.66;1984998;28;1829528;-76
2023/03/29 01:00:10;;;;;;;;;19.83;16.00;;;;;12.18;59.35;101595.38;1986876;28;1833654;-76
2023/03/29 01:01:45;;;;;;;;;16.50;13.50;;;;;12.17;59.28;101588.41;1954902;28;2807606;-76
2023/03/29 01:03:00;;;;;;;;;18.00;16.40;;;;;12.17;58.91;101588.41;1965443;28;2824170;-76
2023/03/29 01:04:19;;;;;;;;;16.00;11.00;;;;;12.18;59.10;101582.19;1954187;28;2790166;-76
2023/03/29 01:05:38;;;;;;;;;16.33;13.33;;;;;12.18;58.60;101574.28;1953134;28;2812755;-76
2023/03/29 01:06:59;;;;;;;;;14.50;12.50;;;;;12.18;59.00;101579.56;1976700;28;2807540;-74
2023/03/29 01:08:24;;;;;;;;;18.67;17.33;;;;;12.17;58.70;101584.00;1954775;28;3556580;-74
2023/03/29 01:09:38;;;;;;;;;17.00;16.00;;;;;12.16;59.09;101579.63;1977007;28;2821175;-74
2023/03/29 01:11:05;;;;;;;;;14.50;14.50;;;;;12.18;58.55;101587.47;1955101;28;2814863;-74
2023/03/29 01:12:22;;;;;;;;;17.67;14.67;;;;;12.17;58.82;101580.50;1954732;28;2816987;-74
2023/03/29 01:13:40;;;;;;;;;15.67;14.00;;;;;12.17;59.04;101584.00;2014637;28;1827921;-74
2023/03/29 01:15:02;;;;;;;;;16.67;14.17;;;;;12.16;58.50;101574.34;1990813;28;1829547;-74
2023/03/29 01:16:13;;;;;;;;;12.50;12.50;;;;;12.16;58.16;101579.63;1946375;28;2793000;-74
2023/03/29 01:17:26;;;;;;;;;16.20;14.40;;;;;12.16;58.52;101579.63;1975917;28;1835710;-74
2023/03/29 01:18:40;;;;;;;;;16.33;15.00;;;;;12.17;58.82;101588.41;1984637;28;1826370;-74
2023/03/29 01:20:12;;;;;;;;;16.50;15.00;;;;;12.14;58.78;101576.16;1984507;28;1831704;-74
2023/03/29 01:21:31;;;;;;;;;11.50;10.00;;;;;12.13;58.78;101574.41;1954362;28;2784663;-74
2023/03/29 01:22:47;;;;;;;;;14.50;14.50;;;;;12.13;58.86;101585.81;1977287;28;2794038;-74
2023/03/29 01:24:06;;;;;;;;;15.00;13.00;;;;;12.12;59.07;101584.06;1954509;28;2808589;-74
2023/03/29 01:25:31;;;;;;;;;15.67;15.00;;;;;12.11;58.88;101577.06;1982341;28;1829481;-74
2023/03/29 01:27:12;;;;;;;;;15.00;15.00;;;;;12.10;58.42;101570.06;1968248;28;1849288;-74
2023/03/29 01:28:35;;;;;;;;;16.00;14.00;;;;;12.09;58.46;101551.66;1976911;28;2808597;-74
2023/03/29 01:29:56;;;;;;;;;15.67;14.50;;;;;12.07;58.40;101553.47;1985992;28;1827419;-74
2023/03/29 01:31:15;;;;;;;;;16.00;14.00;;;;;12.07;58.57;101559.63;1954638;28;2814838;-74
2023/03/29 01:32:39;;;;;;;;;15.00;15.00;;;;;12.07;58.79;101566.66;1953748;28;2804426;-74
2023/03/29 01:34:01;;;;;;;;;14.17;12.67;;;;;12.05;58.36;101566.69;2007650;28;1829490;-74
2023/03/29 01:35:18;;;;;;;;;13.50;13.00;;;;;12.04;58.41;101559.69;1953202;28;2795056;-76
2023/03/29 01:36:36;;;;;;;;;17.00;14.00;;;;;12.04;58.70;101567.59;1952699;28;2805475;-76
2023/03/29 01:38:08;;;;;;;;;14.17;12.83;;;;;12.03;58.59;101565.84;1977615;28;1825338;-76
2023/03/29 01:39:20;;;;;;;;;16.00;14.00;;;;;12.02;58.68;101570.28;1955329;28;2799221;-76
2023/03/29 01:40:32;;;;;;;;;15.67;14.33;;;;;12.01;59.00;101567.66;1960238;28;2811722;-76
2023/03/29 01:41:58;;;;;;;;;16.00;13.17;;;;;12.00;58.64;101564.16;2006018;28;1826337;-76
2023/03/29 01:43:22;;;;;;;;;16.00;14.50;;;;;12.00;58.27;101558.06;1949555;28;2816938;-76
2023/03/29 01:44:56;;;;;;;;;13.00;11.50;;;;;11.99;58.39;101553.69;1953787;28;2796113;-76
2023/03/29 01:46:17;;;;;;;;;18.00;15.33;;;;;11.99;58.07;101553.69;1983233;28;2825310;-76
2023/03/29 01:47:45;;;;;;;;;15.83;12.33;;;;;11.98;58.55;101563.34;2004070;28;1826361;-76
2023/03/29 01:49:02;;;;;;;;;14.00;14.00;;;;;11.99;58.44;101561.56;1949657;28;2806548;-76
2023/03/29 01:50:36;;;;;;;;;18.50;14.00;;;;;11.98;59.11;101562.47;1953920;28;2811769;-76
2023/03/29 01:51:56;;;;;;;;;14.60;12.20;;;;;11.98;58.74;101563.34;1973407;28;2796042;-76
2023/03/29 01:53:10;;;;;;;;;20.33;17.33;;;;;11.98;58.53;101559.84;1952866;28;3566904;-76
2023/03/29 01:54:31;;;;;;;;;18.33;14.00;;;;;11.98;58.47;101555.44;1974733;28;2806502;-76
2023/03/29 01:55:51;;;;;;;;;13.60;13.40;;;;;11.99;58.55;101558.94;1994171;28;2800233;-76
2023/03/29 01:57:04;;;;;;;;;15.50;14.00;;;;;11.99;58.66;101564.22;1954273;28;2808619;-76
2023/03/29 01:58:17;;;;;;;;;15.67;13.67;;;;;11.99;58.70;101561.56;1952925;28;2819037;-76
2023/03/29 01:59:32;;;;;;;;;16.50;14.00;;;;;12.00;58.63;101552.78;1968849;28;2816922;-76
2023/03/29 02:00:45;;;;;;;;;14.00;13.40;;;;;12.00;58.42;101558.88;1972698;28;2810648;-75
2023/03/29 02:02:04;;;;;;;;;13.14;11.71;;;;;12.00;58.26;101558.06;1992299;28;1827381;-75
2023/03/29 02:03:16;;;;;;;;;16.50;14.00;;;;;12.00;58.58;101552.78;1982172;28;2803428;-76
2023/03/29 02:04:33;;;;;;;;;16.00;12.50;;;;;12.01;58.53;101557.13;1954632;28;2786738;-76
2023/03/29 02:05:45;;;;;;;;;15.60;14.00;;;;;12.01;58.57;101555.38;1971794;28;2797134;-76
2023/03/29 02:06:59;;;;;;;;;14.00;13.00;;;;;12.02;58.91;101556.25;1948247;28;2786790;-76
2023/03/29 02:08:16;;;;;;;;;7.00;6.50;;;;;12.03;58.46;101555.31;1974213;28;2736205;-75
2023/03/29 02:09:29;;;;;;;;;13.50;12.00;;;;;12.03;58.68;101557.94;1976764;28;2789864;-76
2023/03/29 02:10:39;;;;;;;;;16.00;14.50;;;;;12.02;58.89;101559.75;1983753;28;2807012;-75
2023/03/29 02:11:52;;;;;;;;;12.00;10.75;;;;;12.04;58.22;101562.31;1975168;28;1841972;-76
2023/03/29 02:13:04;;;;;;;;;8.67;8.67;;;;;12.03;58.71;101564.09;1976313;28;2751440;-75
2023/03/29 02:14:15;;;;;;;;;13.00;11.33;;;;;12.03;59.07;101560.59;1975313;28;2797115;-76
2023/03/29 02:15:26;;;;;;;;;11.50;10.00;;;;;12.04;58.75;101557.94;1973620;28;2794034;-75
2023/03/29 02:16:37;;;;;;;;;10.67;10.67;;;;;12.05;58.80;101558.78;1951087;28;3521057;-76
2023/03/29 02:17:49;;;;;;;;;10.00;9.00;;;;;12.05;58.89;101564.03;1961438;28;3487759;-76
2023/03/29 02:19:00;;;;;;;;;10.50;10.50;;;;;12.05;59.23;101558.78;1982839;28;2777344;-75
2023/03/29 02:20:37;;;;;;;;;12.50;12.50;;;;;12.05;58.73;101558.78;1984278;28;2782588;-76
2023/03/29 02:22:09;;;;;;;;;14.50;14.00;;;;;12.05;58.75;101553.50;1971499;28;2806512;-76
2023/03/29 02:23:23;;;;;;;;;12.25;11.75;;;;;12.05;58.70;101553.50;1991113;28;1844009;-76
2023/03/29 02:24:36;;;;;;;;;12.00;12.00;;;;;12.06;58.42;101555.25;1976758;28;2788821;-76
2023/03/29 02:25:49;;;;;;;;;16.00;12.50;;;;;12.05;58.66;101553.50;1952233;28;2805488;-76
2023/03/29 02:27:00;;;;;;;;;12.50;11.00;;;;;12.05;58.24;101548.22;1955012;28;2787753;-76
2023/03/29 02:28:11;;;;;;;;;14.50;14.50;;;;;12.04;58.49;101542.13;1991565;28;2803381;-76
2023/03/29 02:29:22;;;;;;;;;15.00;11.50;;;;;12.04;58.14;101543.88;1954362;28;2800761;-76
2023/03/29 02:30:53;;;;;;;;;13.00;12.20;;;;;12.04;58.41;101546.53;1980568;28;1820051;-75
2023/03/29 02:32:16;;;;;;;;;13.50;11.00;;;;;12.05;58.64;101537.69;1953047;28;2797143;-76
2023/03/29 02:33:38;;;;;;;;;18.00;13.00;;;;;12.05;58.47;101535.06;1976836;28;2805480;-76
2023/03/29 02:35:03;;;;;;;;;12.00;10.67;;;;;12.04;58.16;101530.72;1952581;28;3512723;-76
2023/03/29 02:36:19;;;;;;;;;14.00;12.50;;;;;12.04;58.22;101530.72;1952723;28;2798211;-76
2023/03/29 02:37:39;;;;;;;;;10.17;9.50;;;;;12.04;58.61;101536.84;2005852;28;1823216;-76
2023/03/29 02:38:51;;;;;;;;;14.00;10.50;;;;;12.04;58.68;101533.34;1953129;28;2782560;-76
2023/03/29 02:40:06;;;;;;;;;13.00;13.00;;;;;12.03;58.09;101531.59;1976557;28;2804414;-76
2023/03/29 02:41:18;;;;;;;;;12.50;10.50;;;;;12.03;58.09;101534.22;1976823;28;2789856;-76
2023/03/29 02:42:30;;;;;;;;;13.50;13.00;;;;;12.03;57.98;101535.09;1953178;28;2805474;-75
2023/03/29 02:43:45;;;;;;;;;13.50;12.00;;;;;12.02;57.85;101528.13;1953406;28;2792975;-76
2023/03/29 02:44:59;;;;;;;;;13.00;13.00;;;;;12.02;58.09;101535.16;1976620;28;2773177;-76
2023/03/29 02:46:11;;;;;;;;;10.00;10.00;;;;;12.03;58.06;101534.22;1976439;28;2792977;-76
2023/03/29 02:47:30;;;;;;;;;12.33;9.33;;;;;12.02;58.04;101521.97;1991583;28;1841916;-76
2023/03/29 02:48:44;;;;;;;;;12.00;11.00;;;;;12.02;58.18;101521.97;1953885;28;2799229;-76
2023/03/29 02:49:55;;;;;;;;;15.25;12.25;;;;;12.00;57.99;101508.84;1967327;28;1844139;-76
2023/03/29 02:51:17;;;;;;;;;12.00;10.50;;;;;12.01;58.07;101514.97;1991378;28;2788817;-76
2023/03/29 02:52:34;;;;;;;;;13.75;11.75;;;;;12.01;57.66;101509.69;1990284;28;1842007;-76
2023/03/29 02:53:53;;;;;;;;;15.00;14.00;;;;;11.99;57.75;101517.66;1976755;28;2790912;-75
2023/03/29 02:55:13;;;;;;;;;13.33;12.67;;;;;12.01;57.97;101507.06;1984664;28;1829525;-75
2023/03/29 02:56:24;;;;;;;;;16.00;13.00;;;;;11.99;57.81;101507.13;1954742;28;2803472;-76
2023/03/29 02:57:37;;;;;;;;;11.00;11.00;;;;;11.99;57.81;101501.84;1963740;28;2793994;-75
2023/03/29 02:58:48;;;;;;;;;14.50;13.00;;;;;11.99;57.94;101511.53;1988623;28;1855552;-76
2023/03/29 02:59:59;;;;;;;;;12.00;11.00;;;;;11.98;57.99;101508.00;1979337;28;2806466;-75
2023/03/29 03:01:11;;;;;;;;;12.00;10.75;;;;;11.98;58.00;101504.50;1967756;28;1845105;-76
2023/03/29 03:02:24;;;;;;;;;13.83;11.83;;;;;11.97;57.86;101506.31;2013606;28;1822177;-76
2023/03/29 03:03:35;;;;;;;;;10.33;8.00;;;;;11.97;57.78;101505.44;1960745;28;3480452;-76
2023/03/29 03:04:46;;;;;;;;;13.00;13.00;;;;;11.97;57.30;101497.53;1989593;28;2801353;-76
2023/03/29 03:05:57;;;;;;;;;9.33;9.33;;;;;11.95;57.27;101499.34;1989245;28;3490896;-76
2023/03/29 03:07:09;;;;;;;;;13.00;13.00;;;;;11.94;57.43;101503.75;2009048;28;1840891;-76
2023/03/29 03:08:20;;;;;;;;;14.75;11.75;;;;;11.92;57.41;101498.53;1994569;28;1858615;-76
2023/03/29 03:09:31;;;;;;;;;10.50;10.50;;;;;11.93;57.68;101500.22;1976362;28;2789946;-75
2023/03/29 03:10:41;;;;;;;;;12.50;12.50;;;;;11.91;57.57;101503.81;1992534;28;2786742;-76
2023/03/29 03:11:53;;;;;;;;;11.80;11.60;;;;;11.90;57.65;101495.03;2006449;28;1819205;-76
2023/03/29 03:13:05;;;;;;;;;10.50;9.75;;;;;11.89;57.58;101503.88;1991050;28;1837820;-76
2023/03/29 03:14:17;;;;;;;;;13.00;13.00;;;;;11.88;57.59;101504.75;1975929;28;2792005;-76
2023/03/29 03:15:30;;;;;;;;;14.50;11.25;;;;;11.88;57.39;101509.16;1991493;28;1842000;-76
2023/03/29 03:16:40;;;;;;;;;14.00;13.50;;;;;11.86;57.39;101517.09;1983151;28;2798668;-76
2023/03/29 03:17:53;;;;;;;;;15.00;10.50;;;;;11.85;57.45;101518.03;1978543;28;1837877;-76
2023/03/29 03:19:03;;;;;;;;;11.33;10.67;;;;;11.85;57.45;101523.31;1975569;28;3508549;-76
2023/03/29 03:20:15;;;;;;;;;11.40;10.80;;;;;11.84;57.65;101513.66;1979805;28;1822170;-76
2023/03/29 03:21:29;;;;;;;;;11.50;10.00;;;;;11.83;57.02;101504.00;1975824;28;2784682;-76
2023/03/29 03:22:41;;;;;;;;;13.00;10.50;;;;;11.82;57.21;101504.94;1976324;28;2778421;-76
2023/03/29 03:23:53;;;;;;;;;10.33;10.00;;;;;11.82;57.58;101507.56;1976546;28;3518980;-75
2023/03/29 03:25:04;;;;;;;;;10.50;9.50;;;;;11.82;57.75;101510.19;1968585;28;2769051;-76
2023/03/29 03:26:16;;;;;;;;;10.00;9.00;;;;;11.82;58.09;101510.19;1971504;28;2769043;-76
2023/03/29 03:27:27;;;;;;;;;9.00;9.00;;;;;11.81;58.21;101504.06;1985624;28;2490845;-76
2023/03/29 03:28:38;;;;;;;;;11.67;11.33;;;;;11.81;57.89;101504.06;2008512;28;1844080;-76
2023/03/29 03:29:49;;;;;;;;;10.00;10.00;;;;;11.81;57.63;101493.53;1953071;28;2778404;-76
2023/03/29 03:31:00;;;;;;;;;9.25;9.00;;;;;11.82;57.99;101495.25;2009802;28;1823264;-76
2023/03/29 03:32:11;;;;;;;;;12.50;9.00;;;;;11.83;58.30;101501.38;1975697;28;2769003;-76
2023/03/29 03:33:23;;;;;;;;;13.50;10.75;;;;;11.82;58.44;101494.41;2009136;28;1841999;-76
2023/03/29 03:34:35;;;;;;;;;9.00;9.00;;;;;11.84;58.47;101495.22;1991362;28;1839338;-76
2023/03/29 03:35:46;;;;;;;;;11.00;9.00;;;;;11.84;58.37;101487.31;1976188;28;3490880;-76
2023/03/29 03:37:00;;;;;;;;;12.00;10.00;;;;;11.85;58.36;101498.72;1967866;28;2797171;-75
2023/03/29 03:38:11;;;;;;;;;11.50;9.50;;;;;11.86;58.43;101501.31;1970112;28;2777352;-76
2023/03/29 03:39:22;;;;;;;;;10.00;10.00;;;;;11.87;58.32;101491.63;1977123;28;2772147;-76
2023/03/29 03:40:33;;;;;;;;;12.00;10.00;;;;;11.87;58.52;101496.91;1990219;28;2779439;-76
2023/03/29 03:41:43;;;;;;;;;10.50;8.00;;;;;11.87;58.01;101492.50;1976519;28;2771082;-76
2023/03/29 03:42:54;;;;;;;;;12.50;9.50;;;;;11.88;58.11;101491.59;1963167;28;2779440;-76
2023/03/29 03:44:06;;;;;;;;;6.75;5.75;;;;;11.88;58.37;101486.31;1996170;28;2727337;-76
2023/03/29 03:45:19;;;;;;;;;10.83;10.17;;;;;11.90;58.55;101481.03;2006770;28;1819037;-76
2023/03/29 03:46:31;;;;;;;;;12.75;12.00;;;;;11.90;57.77;101487.13;1969895;28;1844146;-76
2023/03/29 03:47:42;;;;;;;;;9.33;9.33;;;;;11.91;58.03;101504.69;1997215;28;2764867;-76
2023/03/29 03:48:54;;;;;;;;;12.00;9.25;;;;;11.91;58.12;101496.78;2007522;28;1844044;-76
2023/03/29 03:50:07;;;;;;;;;9.50;8.17;;;;;11.92;58.09;101493.25;2003743;28;2742036;-76
2023/03/29 03:51:18;;;;;;;;;9.00;8.33;;;;;11.93;57.88;101487.06;1953768;28;3473169;-75
2023/03/29 03:52:30;;;;;;;;;12.50;10.25;;;;;11.93;57.92;101488.81;1994422;28;1842966;-76
2023/03/29 03:53:41;;;;;;;;;9.50;8.50;;;;;11.95;57.99;101494.91;1998616;28;1840981;-76
2023/03/29 03:54:53;;;;;;;;;13.50;10.75;;;;;11.96;57.80;101495.78;1997453;28;1844000;-76
2023/03/29 03:56:07;;;;;;;;;11.33;9.00;;;;;11.96;58.07;101498.41;1981735;28;3485641;-76
2023/03/29 03:57:18;;;;;;;;;9.50;9.50;;;;;11.97;58.11;101494.91;1966972;28;2766972;-76
2023/03/29 03:58:29;;;;;;;;;13.00;12.00;;;;;11.98;57.75;101488.69;1979116;28;2796109;-76
2023/03/29 03:59:40;;;;;;;;;13.50;10.00;;;;;11.98;57.22;101492.22;1987845;28;2791971;-76
2023/03/29 04:00:51;;;;;;;;;15.00;12.00;;;;;11.99;57.23;101496.59;1998920;28;1819695;-75
2023/03/29 04:02:02;;;;;;;;;9.00;9.00;;;;;12.00;57.32;101493.03;1977073;28;2760755;-76
2023/03/29 04:03:14;;;;;;;;;13.00;12.00;;;;;12.00;57.41;101493.03;1998575;28;2787771;-76
2023/03/29 04:04:25;;;;;;;;;13.25;11.50;;;;;12.01;57.85;101489.50;1996536;28;1842476;-76
2023/03/29 04:05:40;;;;;;;;;13.50;10.00;;;;;12.04;58.03;101496.44;1975049;28;2788822;-76
2023/03/29 04:06:51;;;;;;;;;10.33;9.00;;;;;12.04;57.61;101499.09;1975043;28;3489815;-75
2023/03/29 04:08:03;;;;;;;;;14.00;9.75;;;;;12.06;57.84;101492.00;1983587;28;1844069;-76
2023/03/29 04:09:13;;;;;;;;;11.50;11.50;;;;;12.06;57.54;101484.09;1967932;28;2791919;-76
2023/03/29 04:10:24;;;;;;;;;13.67;10.00;;;;;12.08;57.35;101490.19;2001475;28;1833635;-76
2023/03/29 04:11:36;;;;;;;;;10.00;10.00;;;;;12.08;57.55;101479.66;1946141;28;2779455;-76
2023/03/29 04:12:46;;;;;;;;;10.00;10.00;;;;;12.10;57.33;101490.16;1968793;28;2776346;-76
2023/03/29 04:13:57;;;;;;;;;11.00;10.00;;;;;12.10;57.49;101488.38;1982142;28;2789860;-76
2023/03/29 04:15:09;;;;;;;;;11.67;10.67;;;;;12.12;57.21;101490.97;1983223;28;3501269;-76
2023/03/29 04:16:19;;;;;;;;;11.00;10.50;;;;;12.13;57.55;101487.47;1967524;28;2784655;-76
2023/03/29 04:17:30;;;;;;;;;11.00;9.67;;;;;12.13;57.44;101483.06;1971491;28;3498143;-75
2023/03/29 04:18:42;;;;;;;;;10.75;10.50;;;;;12.15;57.33;101477.72;1982957;28;1843018;-76
2023/03/29 04:19:55;;;;;;;;;13.25;10.50;;;;;12.14;56.88;101490.06;1990191;28;1841936;-76
2023/03/29 04:21:05;;;;;;;;;11.33;9.00;;;;;12.17;58.01;101490.88;1970359;28;3496077;-76
2023/03/29 04:22:16;;;;;;;;;7.67;7.67;;;;;12.17;58.27;101494.38;1984665;28;2742005;-76
2023/03/29 04:23:27;;;;;;;;;9.00;8.00;;;;;12.18;58.33;101484.69;1983189;28;2753403;-75
2023/03/29 04:24:38;;;;;;;;;10.67;9.33;;;;;12.18;58.29;101484.69;1985481;28;3497107;-76
2023/03/29 04:25:54;;;;;;;;;13.67;10.67;;;;;12.19;58.46;101483.78;1985091;28;3513796;-76
2023/03/29 04:27:04;;;;;;;;;9.33;9.33;;;;;12.20;58.47;101489.00;1971179;28;2760729;-76
2023/03/29 04:28:15;;;;;;;;;11.33;8.33;;;;;12.21;58.58;101490.75;2007904;28;1812777;-76
2023/03/29 04:29:26;;;;;;;;;11.33;10.33;;;;;12.21;58.59;101480.22;1982837;28;3513789;-76
2023/03/29 04:30:37;;;;;;;;;13.67;8.67;;;;;12.22;58.46;101484.56;1975731;28;3487744;-76
2023/03/29 04:31:47;;;;;;;;;10.00;9.33;;;;;12.23;58.08;101477.53;1974357;28;3497141;-76
2023/03/29 04:32:59;;;;;;;;;11.67;10.67;;;;;12.23;58.37;101477.53;1984260;28;3504407;-76
2023/03/29 04:34:10;;;;;;;;;11.00;7.75;;;;;12.23;58.26;101480.16;1989446;28;1832567;-76
2023/03/29 04:35:21;;;;;;;;;10.50;9.50;;;;;12.24;58.28;101484.53;1969576;28;2770113;-76
2023/03/29 04:36:32;;;;;;;;;16.33;10.33;;;;;12.24;58.32;101484.53;1986786;28;3515860;-76
2023/03/29 04:37:43;;;;;;;;;12.50;12.00;;;;;12.26;58.11;101477.44;1976821;28;2786742;-76
2023/03/29 04:38:54;;;;;;;;;11.00;8.00;;;;;12.26;58.14;101478.31;1978242;28;2776291;-76
2023/03/29 04:40:12;;;;;;;;;13.00;9.00;;;;;12.27;58.30;101485.28;1995408;28;1838927;-76
2023/03/29 04:41:24;;;;;;;;;11.50;9.25;;;;;12.26;58.26;101482.72;1983478;28;1846117;-75
2023/03/29 04:42:36;;;;;;;;;11.50;10.00;;;;;12.28;58.23;101483.53;1959180;28;2784747;-76
2023/03/29 04:43:49;;;;;;;;;8.00;5.67;;;;;12.28;58.14;101486.16;1980869;28;2741945;-75
2023/03/29 04:44:59;;;;;;;;;10.00;9.33;;;;;12.29;58.07;101482.63;1931393;28;3489812;-76
2023/03/29 04:46:12;;;;;;;;;16.00;11.00;;;;;12.30;58.33;101475.59;1979069;28;2782544;-76
2023/03/29 04:47:22;;;;;;;;;13.00;11.67;;;;;12.31;58.15;101479.94;1976353;28;3505435;-76
2023/03/29 04:48:35;;;;;;;;;11.00;10.67;;;;;12.31;58.24;101475.53;1995003;28;3496060;-76
2023/03/29 04:49:48;;;;;;;;;8.50;8.50;;;;;12.32;58.17;101474.63;2005788;28;2735734;-76
2023/03/29 04:50:59;;;;;;;;;13.67;11.67;;;;;12.34;58.13;101487.78;1976900;28;3512774;-76
2023/03/29 04:52:10;;;;;;;;;9.00;9.00;;;;;12.34;58.19;101475.47;2004260;28;2738801;-76
2023/03/29 04:53:24;;;;;;;;;9.83;8.00;;;;;12.35;58.38;101490.34;1996998;28;2743525;-76
2023/03/29 04:54:36;;;;;;;;;10.00;9.00;;;;;12.36;58.32;101486.81;1940602;28;2758727;-76
2023/03/29 04:55:46;;;;;;;;;12.00;9.50;;;;;12.37;58.42;101492.97;1966611;28;2767985;-76
2023/03/29 04:56:58;;;;;;;;;12.00;9.50;;;;;12.37;58.57;101491.16;1999511;28;1828428;-76
2023/03/29 04:58:09;;;;;;;;;8.67;8.67;;;;;12.37;58.13;101485.06;1984525;28;1829447;-76
2023/03/29 04:59:20;;;;;;;;;16.00;9.67;;;;;12.37;58.19;101488.53;1978878;28;1837778;-76
2023/03/29 05:00:30;;;;;;;;;9.33;8.33;;;;;12.37;58.33;101491.16;1943326;28;3475252;-76
2023/03/29 05:01:41;;;;;;;;;7.33;7.33;;;;;12.38;58.12;101490.28;2002428;28;2736713;-75
2023/03/29 05:02:52;;;;;;;;;8.33;8.33;;;;;12.40;58.22;101495.50;1958371;28;3474251;-76
2023/03/29 05:04:03;;;;;;;;;9.00;9.00;;;;;12.38;58.15;101485.00;1975766;28;2749239;-76
2023/03/29 05:05:14;;;;;;;;;10.67;10.67;;;;;12.41;57.94;101485.81;1970037;28;3499273;-76
2023/03/29 05:06:25;;;;;;;;;9.33;9.00;;;;;12.40;58.19;101484.94;1970895;28;2761783;-76
2023/03/29 05:07:37;;;;;;;;;9.00;7.75;;;;;12.42;58.37;101487.56;1995693;28;2734658;-76
2023/03/29 05:08:47;;;;;;;;;9.67;8.00;;;;;12.42;58.62;101493.66;1970963;28;3471101;-76
2023/03/29 05:09:58;;;;;;;;;16.50;13.00;;;;;12.43;58.33;101497.19;1986174;28;2804449;-76
2023/03/29 05:11:10;;;;;;;;;12.50;11.00;;;;;12.45;58.21;101498.88;1986653;28;2784658;-76
2023/03/29 05:12:21;;;;;;;;;9.67;9.67;;;;;12.46;58.62;101502.38;1971127;28;3497099;-76
2023/03/29 05:13:32;;;;;;;;;13.33;9.33;;;;;12.47;58.66;101498.84;2000306;28;1837852;-76
2023/03/29 05:14:43;;;;;;;;;9.67;9.33;;;;;12.47;58.56;101498.84;1950074;28;3482905;-76
2023/03/29 05:15:55;;;;;;;;;11.00;8.67;;;;;12.48;58.47;101503.19;1986168;28;3492928;-76
2023/03/29 05:17:07;;;;;;;;;9.50;9.50;;;;;12.49;58.21;101507.56;1987267;28;1827223;-76
2023/03/29 05:18:17;;;;;;;;;10.00;10.00;;;;;12.49;58.23;101499.66;1971044;28;3481490;-74
2023/03/29 05:19:28;;;;;;;;;10.00;10.00;;;;;12.50;58.30;101506.63;1978103;28;3495051;-74
2023/03/29 05:20:41;;;;;;;;;12.67;10.67;;;;;12.51;58.20;101502.25;1993102;28;3500240;-74
2023/03/29 05:21:51;;;;;;;;;9.00;8.67;;;;;12.51;58.46;101492.56;1983586;28;2740891;-73
2023/03/29 05:23:02;;;;;;;;;9.67;9.00;;;;;12.52;58.45;101489.00;1977784;28;2770140;-74
2023/03/29 05:24:13;;;;;;;;;9.00;8.67;;;;;12.53;58.27;101490.75;2002021;28;1843127;-74
2023/03/29 05:25:24;;;;;;;;;10.00;10.00;;;;;12.53;58.70;101484.59;1943353;28;3506491;-74
2023/03/29 05:26:35;;;;;;;;;14.00;9.00;;;;;12.54;58.42;101481.06;1961486;28;3493294;-74
2023/03/29 05:27:46;;;;;;;;;10.00;9.00;;;;;12.54;58.33;101474.03;2002052;28;1831504;-73
2023/03/29 05:28:56;;;;;;;;;14.00;10.00;;;;;12.54;58.23;101468.75;1946765;28;2795069;-74
2023/03/29 05:30:08;;;;;;;;;12.25;8.75;;;;;12.54;58.29;101466.13;2007834;28;1819071;-74
2023/03/29 05:31:19;;;;;;;;;16.00;13.00;;;;;12.55;58.13;101472.22;1953781;28;2790925;-74